< < Back
Terminal Aerodrome Forecast


Current Version              Previous Versions:   1  2  3  4  5  6  7  8  9  

Terminal Aerodrome Forecast

848
FTUS42 KJAX 291120
TAFGNV
TAF
KGNV 291120Z 2912/3012 VRB03KT P6SM SKC
     FM291400 30008KT P6SM SCT030
     FM300000 35005KT P6SM FEW040 SCT250=

Latest METAR

349
SAUS70 KWBC 291700 RRH
MTRGNV
METAR KGNV 291653Z 32008KT 10SM BKN045 BKN060 30/19 A3007 RMK AO2 SLP178
T03000189


USA.gov is the U.S. government's official web portal to all federal, state and local government web resources and services.